sensor_id;sensor_type;location;lat;lon;timestamp;P1;durP1;ratioP1;P2;durP2;ratioP2
12776;SDS011;6452;41.572;23.732;2024-03-23T00:53:37;6.85;;;5.60;;
12776;SDS011;6452;41.572;23.732;2024-03-23T00:56:03;5.88;;;5.38;;
12776;SDS011;6452;41.572;23.732;2024-03-23T00:58:30;6.40;;;5.57;;
12776;SDS011;6452;41.572;23.732;2024-03-23T01:00:56;6.85;;;5.95;;
12776;SDS011;6452;41.572;23.732;2024-03-23T01:03:22;10.40;;;6.55;;
12776;SDS011;6452;41.572;23.732;2024-03-23T01:05:48;7.57;;;5.88;;
12776;SDS011;6452;41.572;23.732;2024-03-23T01:08:14;9.73;;;6.93;;
12776;SDS011;6452;41.572;23.732;2024-03-23T01:10:40;6.90;;;5.88;;
12776;SDS011;6452;41.572;23.732;2024-03-23T01:13:06;10.05;;;6.65;;
12776;SDS011;6452;41.572;23.732;2024-03-23T01:15:32;8.10;;;6.30;;
12776;SDS011;6452;41.572;23.732;2024-03-23T01:17:58;7.55;;;5.45;;
12776;SDS011;6452;41.572;23.732;2024-03-23T01:20:24;6.70;;;5.18;;
12776;SDS011;6452;41.572;23.732;2024-03-23T01:22:50;5.45;;;4.80;;
12776;SDS011;6452;41.572;23.732;2024-03-23T01:25:17;4.80;;;4.32;;
12776;SDS011;6452;41.572;23.732;2024-03-23T01:27:43;5.85;;;4.47;;
12776;SDS011;6452;41.572;23.732;2024-03-23T01:30:09;5.28;;;4.88;;
12776;SDS011;6452;41.572;23.732;2024-03-23T01:32:35;5.85;;;4.45;;
12776;SDS011;6452;41.572;23.732;2024-03-23T01:35:01;5.90;;;4.60;;
12776;SDS011;6452;41.572;23.732;2024-03-23T01:37:27;5.25;;;4.75;;
12776;SDS011;6452;41.572;23.732;2024-03-23T01:39:53;8.30;;;5.03;;
12776;SDS011;6452;41.572;23.732;2024-03-23T01:42:19;6.10;;;5.45;;
12776;SDS011;6452;41.572;23.732;2024-03-23T01:44:46;5.75;;;4.93;;
12776;SDS011;6452;41.572;23.732;2024-03-23T01:47:12;7.60;;;5.60;;
12776;SDS011;6452;41.572;23.732;2024-03-23T01:49:38;6.57;;;5.30;;
12776;SDS011;6452;41.572;23.732;2024-03-23T01:52:04;7.63;;;6.15;;
12776;SDS011;6452;41.572;23.732;2024-03-23T01:54:31;10.23;;;6.80;;
12776;SDS011;6452;41.572;23.732;2024-03-23T01:56:57;8.73;;;6.10;;
12776;SDS011;6452;41.572;23.732;2024-03-23T01:59:24;8.90;;;6.68;;
12776;SDS011;6452;41.572;23.732;2024-03-23T02:01:50;9.27;;;6.90;;
12776;SDS011;6452;41.572;23.732;2024-03-23T02:04:16;7.07;;;6.38;;
12776;SDS011;6452;41.572;23.732;2024-03-23T02:06:42;8.43;;;7.00;;
12776;SDS011;6452;41.572;23.732;2024-03-23T02:09:08;9.80;;;6.95;;
12776;SDS011;6452;41.572;23.732;2024-03-23T02:11:34;8.70;;;6.50;;
12776;SDS011;6452;41.572;23.732;2024-03-23T02:14:01;6.97;;;6.30;;
12776;SDS011;6452;41.572;23.732;2024-03-23T02:16:27;8.48;;;6.95;;
12776;SDS011;6452;41.572;23.732;2024-03-23T02:18:53;8.27;;;6.88;;
12776;SDS011;6452;41.572;23.732;2024-03-23T02:21:19;7.00;;;6.20;;
12776;SDS011;6452;41.572;23.732;2024-03-23T02:23:46;8.10;;;6.88;;
12776;SDS011;6452;41.572;23.732;2024-03-23T02:26:12;11.30;;;7.53;;
12776;SDS011;6452;41.572;23.732;2024-03-23T02:28:39;8.18;;;7.20;;
12776;SDS011;6452;41.572;23.732;2024-03-23T02:31:05;7.43;;;6.70;;
12776;SDS011;6452;41.572;23.732;2024-03-23T02:33:31;8.80;;;7.15;;
12776;SDS011;6452;41.572;23.732;2024-03-23T02:35:58;7.50;;;6.70;;
12776;SDS011;6452;41.572;23.732;2024-03-23T02:38:24;8.05;;;6.75;;
12776;SDS011;6452;41.572;23.732;2024-03-23T02:40:50;10.63;;;7.82;;
12776;SDS011;6452;41.572;23.732;2024-03-23T02:43:15;9.23;;;7.00;;
12776;SDS011;6452;41.572;23.732;2024-03-23T02:45:41;7.32;;;5.60;;
12776;SDS011;6452;41.572;23.732;2024-03-23T02:48:08;6.68;;;5.53;;
12776;SDS011;6452;41.572;23.732;2024-03-23T02:50:34;5.55;;;4.95;;
12776;SDS011;6452;41.572;23.732;2024-03-23T02:53:04;7.28;;;5.93;;
12776;SDS011;6452;41.572;23.732;2024-03-23T02:55:30;7.32;;;5.50;;
12776;SDS011;6452;41.572;23.732;2024-03-23T02:57:56;7.47;;;5.90;;
12776;SDS011;6452;41.572;23.732;2024-03-23T03:00:27;6.55;;;5.40;;
12776;SDS011;6452;41.572;23.732;2024-03-23T03:02:53;8.07;;;6.15;;
12776;SDS011;6452;41.572;23.732;2024-03-23T03:05:19;6.90;;;6.25;;
12776;SDS011;6452;41.572;23.732;2024-03-23T03:07:46;9.07;;;5.97;;
12776;SDS011;6452;41.572;23.732;2024-03-23T03:10:12;7.05;;;6.35;;
12776;SDS011;6452;41.572;23.732;2024-03-23T03:12:38;7.38;;;6.25;;
12776;SDS011;6452;41.572;23.732;2024-03-23T03:15:04;7.95;;;5.68;;
12776;SDS011;6452;41.572;23.732;2024-03-23T03:17:31;6.80;;;6.20;;
12776;SDS011;6452;41.572;23.732;2024-03-23T03:19:57;9.18;;;6.38;;
12776;SDS011;6452;41.572;23.732;2024-03-23T03:22:23;8.82;;;7.38;;
12776;SDS011;6452;41.572;23.732;2024-03-23T03:24:49;8.85;;;6.60;;
12776;SDS011;6452;41.572;23.732;2024-03-23T03:27:15;7.22;;;6.53;;
12776;SDS011;6452;41.572;23.732;2024-03-23T03:29:41;9.57;;;7.13;;
12776;SDS011;6452;41.572;23.732;2024-03-23T03:32:06;7.38;;;6.18;;
12776;SDS011;6452;41.572;23.732;2024-03-23T03:34:33;8.02;;;6.43;;
12776;SDS011;6452;41.572;23.732;2024-03-23T03:36:59;6.68;;;5.68;;
12776;SDS011;6452;41.572;23.732;2024-03-23T03:39:25;7.50;;;6.20;;
12776;SDS011;6452;41.572;23.732;2024-03-23T03:41:51;6.40;;;5.70;;
12776;SDS011;6452;41.572;23.732;2024-03-23T03:44:17;7.28;;;6.28;;
12776;SDS011;6452;41.572;23.732;2024-03-23T03:46:43;9.40;;;6.55;;
12776;SDS011;6452;41.572;23.732;2024-03-23T03:49:10;6.38;;;5.75;;
12776;SDS011;6452;41.572;23.732;2024-03-23T03:51:36;7.10;;;5.85;;
12776;SDS011;6452;41.572;23.732;2024-03-23T03:54:02;6.95;;;6.25;;
12776;SDS011;6452;41.572;23.732;2024-03-23T03:56:28;13.50;;;6.10;;
12776;SDS011;6452;41.572;23.732;2024-03-23T03:58:54;8.95;;;6.53;;
12776;SDS011;6452;41.572;23.732;2024-03-23T04:01:20;7.57;;;6.40;;
12776;SDS011;6452;41.572;23.732;2024-03-23T04:03:46;8.48;;;6.60;;
12776;SDS011;6452;41.572;23.732;2024-03-23T04:06:18;10.73;;;7.55;;
12776;SDS011;6452;41.572;23.732;2024-03-23T04:08:44;12.75;;;7.60;;
12776;SDS011;6452;41.572;23.732;2024-03-23T04:11:10;10.27;;;7.25;;
12776;SDS011;6452;41.572;23.732;2024-03-23T04:13:36;9.23;;;7.20;;
12776;SDS011;6452;41.572;23.732;2024-03-23T04:16:02;11.05;;;7.80;;
12776;SDS011;6452;41.572;23.732;2024-03-23T04:18:29;10.75;;;8.32;;
12776;SDS011;6452;41.572;23.732;2024-03-23T04:20:55;10.38;;;7.90;;
12776;SDS011;6452;41.572;23.732;2024-03-23T04:23:20;10.23;;;8.30;;
12776;SDS011;6452;41.572;23.732;2024-03-23T04:25:46;13.18;;;7.47;;
12776;SDS011;6452;41.572;23.732;2024-03-23T04:28:13;10.23;;;7.68;;
12776;SDS011;6452;41.572;23.732;2024-03-23T04:30:39;11.02;;;8.35;;
12776;SDS011;6452;41.572;23.732;2024-03-23T04:33:04;14.00;;;8.30;;
12776;SDS011;6452;41.572;23.732;2024-03-23T04:35:30;11.23;;;8.18;;
12776;SDS011;6452;41.572;23.732;2024-03-23T04:37:57;7.63;;;6.85;;
12776;SDS011;6452;41.572;23.732;2024-03-23T04:40:24;9.10;;;7.28;;
12776;SDS011;6452;41.572;23.732;2024-03-23T04:42:50;11.45;;;7.95;;
12776;SDS011;6452;41.572;23.732;2024-03-23T04:45:17;11.15;;;6.88;;
12776;SDS011;6452;41.572;23.732;2024-03-23T04:47:43;8.00;;;7.05;;
12776;SDS011;6452;41.572;23.732;2024-03-23T04:50:09;7.88;;;6.18;;
12776;SDS011;6452;41.572;23.732;2024-03-23T04:52:38;6.35;;;5.75;;
12776;SDS011;6452;41.572;23.732;2024-03-23T04:55:04;7.65;;;6.03;;
12776;SDS011;6452;41.572;23.732;2024-03-23T04:57:31;8.07;;;6.80;;
12776;SDS011;6452;41.572;23.732;2024-03-23T04:59:57;7.07;;;6.40;;
12776;SDS011;6452;41.572;23.732;2024-03-23T05:02:23;7.07;;;6.38;;
12776;SDS011;6452;41.572;23.732;2024-03-23T05:04:51;7.55;;;6.60;;
12776;SDS011;6452;41.572;23.732;2024-03-23T05:07:17;10.57;;;6.68;;
12776;SDS011;6452;41.572;23.732;2024-03-23T05:09:43;8.45;;;7.00;;
12776;SDS011;6452;41.572;23.732;2024-03-23T05:12:09;8.18;;;7.35;;
12776;SDS011;6452;41.572;23.732;2024-03-23T05:14:35;12.15;;;7.32;;
12776;SDS011;6452;41.572;23.732;2024-03-23T05:17:02;10.98;;;7.72;;
12776;SDS011;6452;41.572;23.732;2024-03-23T05:19:29;9.70;;;7.60;;
12776;SDS011;6452;41.572;23.732;2024-03-23T05:21:56;10.80;;;9.05;;
12776;SDS011;6452;41.572;23.732;2024-03-23T05:24:22;10.73;;;8.63;;
12776;SDS011;6452;41.572;23.732;2024-03-23T05:26:48;8.65;;;7.75;;
12776;SDS011;6452;41.572;23.732;2024-03-23T05:29:14;10.15;;;8.50;;
12776;SDS011;6452;41.572;23.732;2024-03-23T05:31:42;16.05;;;9.52;;
12776;SDS011;6452;41.572;23.732;2024-03-23T05:34:09;10.13;;;7.13;;
12776;SDS011;6452;41.572;23.732;2024-03-23T05:36:35;12.02;;;8.63;;
12776;SDS011;6452;41.572;23.732;2024-03-23T05:39:01;13.93;;;8.85;;
12776;SDS011;6452;41.572;23.732;2024-03-23T05:41:27;14.15;;;10.13;;
12776;SDS011;6452;41.572;23.732;2024-03-23T05:43:53;14.48;;;11.85;;
12776;SDS011;6452;41.572;23.732;2024-03-23T05:46:18;15.15;;;10.90;;
12776;SDS011;6452;41.572;23.732;2024-03-23T05:48:45;14.55;;;11.10;;
12776;SDS011;6452;41.572;23.732;2024-03-23T05:51:11;14.45;;;11.70;;
12776;SDS011;6452;41.572;23.732;2024-03-23T05:53:38;21.98;;;12.82;;
12776;SDS011;6452;41.572;23.732;2024-03-23T05:56:04;19.17;;;12.82;;
12776;SDS011;6452;41.572;23.732;2024-03-23T05:58:31;19.42;;;13.70;;
12776;SDS011;6452;41.572;23.732;2024-03-23T06:00:57;16.30;;;11.48;;
12776;SDS011;6452;41.572;23.732;2024-03-23T06:03:43;17.77;;;10.85;;
12776;SDS011;6452;41.572;23.732;2024-03-23T06:06:10;12.88;;;8.93;;
12776;SDS011;6452;41.572;23.732;2024-03-23T06:08:38;11.60;;;8.25;;
12776;SDS011;6452;41.572;23.732;2024-03-23T06:11:04;8.88;;;7.45;;
12776;SDS011;6452;41.572;23.732;2024-03-23T06:13:32;7.88;;;7.07;;
12776;SDS011;6452;41.572;23.732;2024-03-23T06:15:59;9.40;;;7.47;;
12776;SDS011;6452;41.572;23.732;2024-03-23T06:18:25;10.02;;;7.75;;
12776;SDS011;6452;41.572;23.732;2024-03-23T06:20:52;9.82;;;8.00;;
12776;SDS011;6452;41.572;23.732;2024-03-23T06:23:17;9.27;;;7.07;;
12776;SDS011;6452;41.572;23.732;2024-03-23T06:25:46;7.95;;;7.20;;
12776;SDS011;6452;41.572;23.732;2024-03-23T06:28:11;9.00;;;7.03;;
12776;SDS011;6452;41.572;23.732;2024-03-23T06:30:37;11.23;;;9.02;;
12776;SDS011;6452;41.572;23.732;2024-03-23T06:33:03;6.78;;;6.07;;
12776;SDS011;6452;41.572;23.732;2024-03-23T06:35:29;6.43;;;5.82;;
12776;SDS011;6452;41.572;23.732;2024-03-23T06:37:58;6.07;;;5.53;;
12776;SDS011;6452;41.572;23.732;2024-03-23T06:40:25;6.35;;;5.50;;
12776;SDS011;6452;41.572;23.732;2024-03-23T06:42:51;5.50;;;5.03;;
12776;SDS011;6452;41.572;23.732;2024-03-23T06:45:17;7.40;;;5.38;;
12776;SDS011;6452;41.572;23.732;2024-03-23T06:47:48;5.30;;;4.57;;
12776;SDS011;6452;41.572;23.732;2024-03-23T06:50:15;6.88;;;5.50;;
12776;SDS011;6452;41.572;23.732;2024-03-23T06:52:41;5.95;;;5.32;;
12776;SDS011;6452;41.572;23.732;2024-03-23T06:55:07;5.50;;;4.95;;
12776;SDS011;6452;41.572;23.732;2024-03-23T06:57:34;5.15;;;4.75;;
12776;SDS011;6452;41.572;23.732;2024-03-23T07:00:00;5.07;;;4.30;;
12776;SDS011;6452;41.572;23.732;2024-03-23T07:02:26;4.53;;;4.13;;
12776;SDS011;6452;41.572;23.732;2024-03-23T07:04:52;4.45;;;4.07;;
12776;SDS011;6452;41.572;23.732;2024-03-23T07:07:18;6.38;;;4.43;;
12776;SDS011;6452;41.572;23.732;2024-03-23T07:09:44;5.85;;;5.05;;
12776;SDS011;6452;41.572;23.732;2024-03-23T07:12:10;5.20;;;4.65;;
12776;SDS011;6452;41.572;23.732;2024-03-23T07:14:36;5.85;;;5.05;;
12776;SDS011;6452;41.572;23.732;2024-03-23T07:17:02;6.22;;;5.63;;
12776;SDS011;6452;41.572;23.732;2024-03-23T07:19:28;5.10;;;4.60;;
12776;SDS011;6452;41.572;23.732;2024-03-23T07:21:54;4.75;;;4.35;;
12776;SDS011;6452;41.572;23.732;2024-03-23T07:24:20;5.07;;;4.57;;
12776;SDS011;6452;41.572;23.732;2024-03-23T07:26:47;5.60;;;5.07;;
12776;SDS011;6452;41.572;23.732;2024-03-23T07:29:13;5.60;;;4.95;;
12776;SDS011;6452;41.572;23.732;2024-03-23T07:31:39;4.57;;;4.18;;
12776;SDS011;6452;41.572;23.732;2024-03-23T07:34:05;9.43;;;4.63;;
12776;SDS011;6452;41.572;23.732;2024-03-23T07:36:31;5.10;;;4.65;;
12776;SDS011;6452;41.572;23.732;2024-03-23T07:38:57;5.55;;;5.05;;
12776;SDS011;6452;41.572;23.732;2024-03-23T07:41:24;6.95;;;4.75;;
12776;SDS011;6452;41.572;23.732;2024-03-23T07:43:50;5.07;;;4.68;;
12776;SDS011;6452;41.572;23.732;2024-03-23T07:46:16;5.00;;;4.50;;
12776;SDS011;6452;41.572;23.732;2024-03-23T07:48:44;5.32;;;4.82;;
12776;SDS011;6452;41.572;23.732;2024-03-23T07:51:12;4.85;;;4.53;;
12776;SDS011;6452;41.572;23.732;2024-03-23T07:53:39;5.78;;;4.47;;
12776;SDS011;6452;41.572;23.732;2024-03-23T07:56:05;6.55;;;5.25;;
12776;SDS011;6452;41.572;23.732;2024-03-23T07:58:31;5.18;;;4.72;;
12776;SDS011;6452;41.572;23.732;2024-03-23T08:01:03;5.25;;;4.75;;
12776;SDS011;6452;41.572;23.732;2024-03-23T08:03:29;4.70;;;4.30;;
12776;SDS011;6452;41.572;23.732;2024-03-23T08:05:55;5.45;;;4.95;;
12776;SDS011;6452;41.572;23.732;2024-03-23T08:08:21;5.88;;;5.07;;
12776;SDS011;6452;41.572;23.732;2024-03-23T08:10:48;4.65;;;4.35;;
12776;SDS011;6452;41.572;23.732;2024-03-23T08:13:14;5.68;;;5.00;;
12776;SDS011;6452;41.572;23.732;2024-03-23T08:15:40;5.30;;;4.80;;
12776;SDS011;6452;41.572;23.732;2024-03-23T08:18:06;12.43;;;9.05;;
12776;SDS011;6452;41.572;23.732;2024-03-23T08:20:33;5.93;;;4.20;;
12776;SDS011;6452;41.572;23.732;2024-03-23T08:22:58;5.78;;;4.78;;
12776;SDS011;6452;41.572;23.732;2024-03-23T08:25:25;8.05;;;5.25;;
12776;SDS011;6452;41.572;23.732;2024-03-23T08:27:52;9.52;;;5.07;;
12776;SDS011;6452;41.572;23.732;2024-03-23T08:30:18;5.50;;;5.00;;
12776;SDS011;6452;41.572;23.732;2024-03-23T08:32:44;4.97;;;4.57;;
12776;SDS011;6452;41.572;23.732;2024-03-23T08:35:12;6.70;;;6.10;;
12776;SDS011;6452;41.572;23.732;2024-03-23T08:37:38;5.13;;;4.60;;
12776;SDS011;6452;41.572;23.732;2024-03-23T08:40:04;5.97;;;5.38;;
12776;SDS011;6452;41.572;23.732;2024-03-23T08:42:33;7.63;;;4.53;;
12776;SDS011;6452;41.572;23.732;2024-03-23T08:44:59;4.57;;;4.18;;
12776;SDS011;6452;41.572;23.732;2024-03-23T08:47:25;7.38;;;4.70;;
12776;SDS011;6452;41.572;23.732;2024-03-23T08:49:50;4.18;;;3.78;;
12776;SDS011;6452;41.572;23.732;2024-03-23T08:52:17;4.05;;;3.60;;
12776;SDS011;6452;41.572;23.732;2024-03-23T08:54:44;4.10;;;3.80;;
12776;SDS011;6452;41.572;23.732;2024-03-23T08:57:11;3.97;;;3.65;;
12776;SDS011;6452;41.572;23.732;2024-03-23T08:59:37;4.00;;;3.80;;
12776;SDS011;6452;41.572;23.732;2024-03-23T09:02:03;4.78;;;4.38;;
12776;SDS011;6452;41.572;23.732;2024-03-23T09:04:30;4.35;;;3.95;;
12776;SDS011;6452;41.572;23.732;2024-03-23T09:06:57;4.95;;;4.55;;
12776;SDS011;6452;41.572;23.732;2024-03-23T09:09:25;5.80;;;4.50;;
12776;SDS011;6452;41.572;23.732;2024-03-23T09:11:51;4.20;;;3.80;;
12776;SDS011;6452;41.572;23.732;2024-03-23T09:14:17;4.03;;;3.72;;
12776;SDS011;6452;41.572;23.732;2024-03-23T09:16:44;5.50;;;3.83;;
12776;SDS011;6452;41.572;23.732;2024-03-23T09:19:11;4.15;;;3.75;;
12776;SDS011;6452;41.572;23.732;2024-03-23T09:21:37;4.60;;;4.20;;
12776;SDS011;6452;41.572;23.732;2024-03-23T09:24:03;5.10;;;4.00;;
12776;SDS011;6452;41.572;23.732;2024-03-23T09:26:30;4.20;;;3.88;;
12776;SDS011;6452;41.572;23.732;2024-03-23T09:28:57;4.50;;;4.20;;
12776;SDS011;6452;41.572;23.732;2024-03-23T09:31:24;5.13;;;4.22;;
12776;SDS011;6452;41.572;23.732;2024-03-23T09:33:50;6.10;;;3.95;;
12776;SDS011;6452;41.572;23.732;2024-03-23T09:36:16;4.45;;;4.05;;
12776;SDS011;6452;41.572;23.732;2024-03-23T09:38:42;6.65;;;4.07;;
12776;SDS011;6452;41.572;23.732;2024-03-23T09:41:08;5.75;;;4.30;;
12776;SDS011;6452;41.572;23.732;2024-03-23T09:43:35;4.47;;;3.95;;
12776;SDS011;6452;41.572;23.732;2024-03-23T09:46:01;4.88;;;4.35;;
12776;SDS011;6452;41.572;23.732;2024-03-23T09:48:27;4.85;;;4.38;;
12776;SDS011;6452;41.572;23.732;2024-03-23T09:50:54;6.70;;;4.03;;
12776;SDS011;6452;41.572;23.732;2024-03-23T09:53:19;5.78;;;3.58;;
12776;SDS011;6452;41.572;23.732;2024-03-23T09:55:47;4.35;;;3.75;;
12776;SDS011;6452;41.572;23.732;2024-03-23T09:58:16;5.03;;;4.55;;
12776;SDS011;6452;41.572;23.732;2024-03-23T10:00:42;5.13;;;4.68;;
12776;SDS011;6452;41.572;23.732;2024-03-23T10:03:08;5.75;;;4.03;;
12776;SDS011;6452;41.572;23.732;2024-03-23T10:05:36;4.22;;;3.92;;
12776;SDS011;6452;41.572;23.732;2024-03-23T10:10:43;4.07;;;3.72;;
12776;SDS011;6452;41.572;23.732;2024-03-23T10:13:10;3.47;;;3.28;;
12776;SDS011;6452;41.572;23.732;2024-03-23T10:15:38;3.30;;;3.10;;
12776;SDS011;6452;41.572;23.732;2024-03-23T10:18:17;6.00;;;3.45;;
12776;SDS011;6452;41.572;23.732;2024-03-23T10:20:51;3.50;;;3.20;;
12776;SDS011;6452;41.572;23.732;2024-03-23T10:23:18;3.40;;;3.20;;
12776;SDS011;6452;41.572;23.732;2024-03-23T10:25:45;3.50;;;3.20;;
12776;SDS011;6452;41.572;23.732;2024-03-23T10:28:11;3.55;;;3.25;;
12776;SDS011;6452;41.572;23.732;2024-03-23T10:30:37;3.88;;;3.40;;
12776;SDS011;6452;41.572;23.732;2024-03-23T10:33:12;5.75;;;5.35;;
12776;SDS011;6452;41.572;23.732;2024-03-23T10:35:39;5.95;;;4.15;;
12776;SDS011;6452;41.572;23.732;2024-03-23T10:38:06;4.13;;;3.72;;
12776;SDS011;6452;41.572;23.732;2024-03-23T10:40:35;5.13;;;3.42;;
12776;SDS011;6452;41.572;23.732;2024-03-23T10:43:02;4.40;;;3.45;;
12776;SDS011;6452;41.572;23.732;2024-03-23T10:45:29;4.07;;;3.70;;
12776;SDS011;6452;41.572;23.732;2024-03-23T10:47:56;3.33;;;3.13;;
12776;SDS011;6452;41.572;23.732;2024-03-23T10:50:22;3.20;;;3.00;;
12776;SDS011;6452;41.572;23.732;2024-03-23T10:52:48;3.90;;;3.47;;
12776;SDS011;6452;41.572;23.732;2024-03-23T10:55:15;4.22;;;3.40;;
12776;SDS011;6452;41.572;23.732;2024-03-23T10:57:48;3.55;;;3.35;;
12776;SDS011;6452;41.572;23.732;2024-03-23T11:00:15;3.60;;;3.30;;
12776;SDS011;6452;41.572;23.732;2024-03-23T11:02:42;3.05;;;2.80;;
12776;SDS011;6452;41.572;23.732;2024-03-23T11:07:50;4.15;;;3.85;;
12776;SDS011;6452;41.572;23.732;2024-03-23T11:10:29;2.50;;;2.40;;
12776;SDS011;6452;41.572;23.732;2024-03-23T11:12:56;3.05;;;2.85;;
12776;SDS011;6452;41.572;23.732;2024-03-23T11:15:22;4.15;;;3.75;;
12776;SDS011;6452;41.572;23.732;2024-03-23T11:18:06;3.47;;;2.85;;
12776;SDS011;6452;41.572;23.732;2024-03-23T11:20:34;3.78;;;3.47;;
12776;SDS011;6452;41.572;23.732;2024-03-23T11:23:27;3.33;;;3.13;;
12776;SDS011;6452;41.572;23.732;2024-03-23T11:25:54;3.30;;;2.95;;
12776;SDS011;6452;41.572;23.732;2024-03-23T11:28:19;3.90;;;2.50;;
12776;SDS011;6452;41.572;23.732;2024-03-23T11:30:45;3.20;;;2.50;;
12776;SDS011;6452;41.572;23.732;2024-03-23T11:33:11;2.75;;;2.55;;
12776;SDS011;6452;41.572;23.732;2024-03-23T11:35:38;3.38;;;3.08;;
12776;SDS011;6452;41.572;23.732;2024-03-23T11:38:11;3.42;;;3.08;;
12776;SDS011;6452;41.572;23.732;2024-03-23T11:40:43;5.88;;;3.58;;
12776;SDS011;6452;41.572;23.732;2024-03-23T11:43:10;3.75;;;3.42;;
12776;SDS011;6452;41.572;23.732;2024-03-23T11:45:38;3.65;;;3.45;;
12776;SDS011;6452;41.572;23.732;2024-03-23T11:50:32;3.65;;;3.30;;
12776;SDS011;6452;41.572;23.732;2024-03-23T11:55:51;3.70;;;2.90;;
12776;SDS011;6452;41.572;23.732;2024-03-23T11:58:21;2.88;;;2.67;;
12776;SDS011;6452;41.572;23.732;2024-03-23T12:00:51;2.83;;;2.63;;
12776;SDS011;6452;41.572;23.732;2024-03-23T12:03:18;3.10;;;2.80;;
12776;SDS011;6452;41.572;23.732;2024-03-23T12:05:50;2.85;;;2.60;;
12776;SDS011;6452;41.572;23.732;2024-03-23T12:08:20;2.78;;;2.58;;
12776;SDS011;6452;41.572;23.732;2024-03-23T12:10:50;2.55;;;2.45;;
12776;SDS011;6452;41.572;23.732;2024-03-23T12:13:32;2.30;;;2.13;;
12776;SDS011;6452;41.572;23.732;2024-03-23T12:16:11;2.38;;;2.20;;
12776;SDS011;6452;41.572;23.732;2024-03-23T12:18:38;2.38;;;2.28;;
12776;SDS011;6452;41.572;23.732;2024-03-23T12:21:05;2.97;;;2.40;;
12776;SDS011;6452;41.572;23.732;2024-03-23T12:23:30;2.95;;;2.42;;
12776;SDS011;6452;41.572;23.732;2024-03-23T12:25:58;2.55;;;2.33;;
12776;SDS011;6452;41.572;23.732;2024-03-23T12:28:24;4.38;;;2.70;;
12776;SDS011;6452;41.572;23.732;2024-03-23T12:30:51;2.50;;;2.30;;
12776;SDS011;6452;41.572;23.732;2024-03-23T12:33:18;2.50;;;2.35;;
12776;SDS011;6452;41.572;23.732;2024-03-23T12:35:44;2.33;;;2.22;;
12776;SDS011;6452;41.572;23.732;2024-03-23T12:38:09;2.47;;;2.25;;
12776;SDS011;6452;41.572;23.732;2024-03-23T12:40:35;2.50;;;2.40;;
12776;SDS011;6452;41.572;23.732;2024-03-23T12:43:01;2.42;;;2.33;;
12776;SDS011;6452;41.572;23.732;2024-03-23T12:45:27;2.63;;;2.45;;
12776;SDS011;6452;41.572;23.732;2024-03-23T12:47:53;2.53;;;2.33;;
12776;SDS011;6452;41.572;23.732;2024-03-23T12:50:19;2.80;;;2.60;;
12776;SDS011;6452;41.572;23.732;2024-03-23T12:52:46;2.50;;;2.40;;
12776;SDS011;6452;41.572;23.732;2024-03-23T12:55:12;2.33;;;2.22;;
12776;SDS011;6452;41.572;23.732;2024-03-23T12:57:38;2.65;;;2.45;;
12776;SDS011;6452;41.572;23.732;2024-03-23T13:00:04;2.70;;;2.50;;
12776;SDS011;6452;41.572;23.732;2024-03-23T13:02:35;2.50;;;2.40;;
12776;SDS011;6452;41.572;23.732;2024-03-23T13:05:02;3.88;;;2.28;;
12776;SDS011;6452;41.572;23.732;2024-03-23T13:07:28;2.13;;;2.03;;
12776;SDS011;6452;41.572;23.732;2024-03-23T13:09:53;2.42;;;2.25;;
12776;SDS011;6452;41.572;23.732;2024-03-23T13:12:22;2.45;;;2.35;;
12776;SDS011;6452;41.572;23.732;2024-03-23T13:14:48;4.90;;;2.95;;
12776;SDS011;6452;41.572;23.732;2024-03-23T13:17:14;3.00;;;2.53;;
12776;SDS011;6452;41.572;23.732;2024-03-23T13:19:40;3.67;;;2.85;;
12776;SDS011;6452;41.572;23.732;2024-03-23T13:22:06;3.08;;;2.42;;
12776;SDS011;6452;41.572;23.732;2024-03-23T13:24:32;2.70;;;2.50;;
12776;SDS011;6452;41.572;23.732;2024-03-23T13:26:58;3.25;;;2.78;;
12776;SDS011;6452;41.572;23.732;2024-03-23T13:29:24;2.58;;;2.33;;
12776;SDS011;6452;41.572;23.732;2024-03-23T13:31:50;2.70;;;2.60;;
12776;SDS011;6452;41.572;23.732;2024-03-23T13:34:16;3.70;;;3.30;;
12776;SDS011;6452;41.572;23.732;2024-03-23T13:36:43;3.53;;;2.85;;
12776;SDS011;6452;41.572;23.732;2024-03-23T13:39:08;3.63;;;3.33;;
12776;SDS011;6452;41.572;23.732;2024-03-23T13:41:38;3.33;;;2.85;;
12776;SDS011;6452;41.572;23.732;2024-03-23T13:44:07;4.60;;;3.15;;
12776;SDS011;6452;41.572;23.732;2024-03-23T13:46:33;2.65;;;2.45;;
12776;SDS011;6452;41.572;23.732;2024-03-23T13:48:59;2.88;;;2.67;;
12776;SDS011;6452;41.572;23.732;2024-03-23T13:51:25;2.40;;;2.30;;
12776;SDS011;6452;41.572;23.732;2024-03-23T13:53:54;2.63;;;2.53;;
12776;SDS011;6452;41.572;23.732;2024-03-23T13:56:24;2.67;;;2.58;;
12776;SDS011;6452;41.572;23.732;2024-03-23T13:58:50;2.90;;;2.40;;
12776;SDS011;6452;41.572;23.732;2024-03-23T14:01:16;2.70;;;2.60;;
12776;SDS011;6452;41.572;23.732;2024-03-23T14:03:42;2.50;;;2.40;;
12776;SDS011;6452;41.572;23.732;2024-03-23T14:06:08;2.40;;;2.30;;
12776;SDS011;6452;41.572;23.732;2024-03-23T14:08:35;3.50;;;3.03;;
12776;SDS011;6452;41.572;23.732;2024-03-23T14:11:02;3.97;;;2.47;;
12776;SDS011;6452;41.572;23.732;2024-03-23T14:13:29;3.65;;;2.50;;
12776;SDS011;6452;41.572;23.732;2024-03-23T14:15:55;2.78;;;2.67;;
12776;SDS011;6452;41.572;23.732;2024-03-23T14:18:21;2.80;;;2.50;;
12776;SDS011;6452;41.572;23.732;2024-03-23T14:20:48;3.05;;;2.80;;
12776;SDS011;6452;41.572;23.732;2024-03-23T14:23:15;2.78;;;2.55;;
12776;SDS011;6452;41.572;23.732;2024-03-23T14:25:41;2.50;;;2.40;;
12776;SDS011;6452;41.572;23.732;2024-03-23T14:28:09;3.70;;;3.00;;
12776;SDS011;6452;41.572;23.732;2024-03-23T14:30:41;4.07;;;3.67;;
12776;SDS011;6452;41.572;23.732;2024-03-23T14:33:07;3.47;;;3.17;;
12776;SDS011;6452;41.572;23.732;2024-03-23T14:35:33;4.50;;;2.53;;
12776;SDS011;6452;41.572;23.732;2024-03-23T14:37:59;2.90;;;2.70;;
12776;SDS011;6452;41.572;23.732;2024-03-23T14:40:25;3.60;;;3.30;;
12776;SDS011;6452;41.572;23.732;2024-03-23T14:42:54;4.05;;;2.70;;
12776;SDS011;6452;41.572;23.732;2024-03-23T14:45:21;2.40;;;2.30;;
12776;SDS011;6452;41.572;23.732;2024-03-23T14:47:47;2.53;;;2.42;;
12776;SDS011;6452;41.572;23.732;2024-03-23T14:50:13;2.63;;;2.40;;
12776;SDS011;6452;41.572;23.732;2024-03-23T14:52:43;2.33;;;2.17;;
12776;SDS011;6452;41.572;23.732;2024-03-23T14:55:09;2.70;;;2.50;;
12776;SDS011;6452;41.572;23.732;2024-03-23T14:57:35;3.17;;;2.97;;
12776;SDS011;6452;41.572;23.732;2024-03-23T15:00:01;2.65;;;2.55;;
12776;SDS011;6452;41.572;23.732;2024-03-23T15:02:31;3.47;;;3.17;;
12776;SDS011;6452;41.572;23.732;2024-03-23T15:04:58;3.42;;;3.22;;
12776;SDS011;6452;41.572;23.732;2024-03-23T15:07:24;2.97;;;2.78;;
12776;SDS011;6452;41.572;23.732;2024-03-23T15:09:51;2.65;;;2.53;;
12776;SDS011;6452;41.572;23.732;2024-03-23T15:12:19;4.38;;;2.83;;
12776;SDS011;6452;41.572;23.732;2024-03-23T15:14:44;3.15;;;2.95;;
12776;SDS011;6452;41.572;23.732;2024-03-23T15:17:12;2.72;;;2.55;;
12776;SDS011;6452;41.572;23.732;2024-03-23T15:19:38;2.88;;;2.78;;
12776;SDS011;6452;41.572;23.732;2024-03-23T15:22:04;3.22;;;2.92;;
12776;SDS011;6452;41.572;23.732;2024-03-23T15:24:30;3.63;;;3.10;;
12776;SDS011;6452;41.572;23.732;2024-03-23T15:26:57;2.92;;;2.63;;
12776;SDS011;6452;41.572;23.732;2024-03-23T15:29:23;6.18;;;3.20;;
12776;SDS011;6452;41.572;23.732;2024-03-23T15:31:51;4.30;;;3.10;;
12776;SDS011;6452;41.572;23.732;2024-03-23T15:34:21;3.38;;;3.03;;
12776;SDS011;6452;41.572;23.732;2024-03-23T15:37:06;3.10;;;2.95;;
12776;SDS011;6452;41.572;23.732;2024-03-23T15:39:32;5.95;;;3.40;;
12776;SDS011;6452;41.572;23.732;2024-03-23T15:41:58;4.60;;;3.83;;
12776;SDS011;6452;41.572;23.732;2024-03-23T15:44:25;4.85;;;3.65;;
12776;SDS011;6452;41.572;23.732;2024-03-23T15:46:51;5.07;;;3.03;;